Time;durP1;ratioP1;P1;durP2;ratioP2;P2;SDS_P1;SDS_P2;PMS_P1;PMS_P2;Temp;Humidity;BMP_temperature;BMP_pressure;BME280_temperature;BME280_humidity;BME280_pressure;Samples;Min_cycle;Max_cycle;Signal;HPM_P1;HPM_P2
2022/09/07 00:00:59;;;;;;;7.07;3.83;;;17.00;99.90;;;;;;5014284;28;20230;-52
2022/09/07 00:03:28;;;;;;;4.97;4.07;;;17.00;99.90;;;;;;5014555;28;20236;-49
2022/09/07 00:05:57;;;;;;;5.97;3.80;;;17.00;99.90;;;;;;5012622;28;20249;-51
2022/09/07 00:08:26;;;;;;;4.30;3.63;;;16.90;99.90;;;;;;5014967;28;20268;-50
2022/09/07 00:10:56;;;;;;;4.30;3.77;;;16.90;99.90;;;;;;5015122;28;20636;-51
2022/09/07 00:13:26;;;;;;;4.87;3.90;;;16.90;99.90;;;;;;5014408;28;20217;-52
2022/09/07 00:15:55;;;;;;;4.10;3.70;;;16.90;99.90;;;;;;5006854;28;20236;-50
2022/09/07 00:18:23;;;;;;;4.37;3.80;;;16.90;99.90;;;;;;5014872;28;20636;-52
2022/09/07 00:21:00;;;;;;;4.90;3.80;;;16.80;99.90;;;;;;5011358;28;20261;-52
2022/09/07 00:23:29;;;;;;;7.93;4.23;;;16.80;99.90;;;;;;5014344;28;20319;-51
2022/09/07 00:26:00;;;;;;;4.00;3.60;;;16.80;99.90;;;;;;5014681;28;20308;-51
2022/09/07 00:28:28;;;;;;;4.77;3.80;;;16.80;99.90;;;;;;5014807;28;20598;-51
2022/09/07 00:30:56;;;;;;;7.90;3.70;;;16.80;99.90;;;;;;5014253;28;20287;-49
2022/09/07 00:33:25;;;;;;;4.53;3.73;;;16.80;99.90;;;;;;5013788;28;20619;-51
2022/09/07 00:35:54;;;;;;;5.47;3.53;;;16.80;99.90;;;;;;5011921;28;20252;-52
2022/09/07 00:38:23;;;;;;;4.30;3.30;;;16.80;99.90;;;;;;5014264;28;20225;-53
2022/09/07 00:40:52;;;;;;;5.67;4.23;;;16.80;99.90;;;;;;5014646;28;20230;-51
2022/09/07 00:43:30;;;;;;;6.13;3.87;;;16.80;99.90;;;;;;5014246;28;20234;-50
2022/09/07 00:45:59;;;;;;;5.83;3.50;;;16.70;99.90;;;;;;5006592;28;20331;-51
2022/09/07 00:48:31;;;;;;;4.30;3.77;;;16.70;99.90;;;;;;5014117;28;20319;-52
2022/09/07 00:51:05;;;;;;;5.87;3.50;;;16.70;99.90;;;;;;5014314;28;20305;-51
2022/09/07 00:53:38;;;;;;;5.47;3.70;;;16.70;99.90;;;;;;5014056;28;20256;-51
2022/09/07 00:56:07;;;;;;;4.93;3.70;;;16.70;99.90;;;;;;5014507;28;20268;-52
2022/09/07 00:58:38;;;;;;;5.17;4.13;;;16.70;99.90;;;;;;5014266;28;20229;-52
2022/09/07 01:01:08;;;;;;;4.37;3.70;;;16.70;99.90;;;;;;5014038;28;20743;-52
2022/09/07 01:03:42;;;;;;;7.13;3.63;;;16.70;99.90;;;;;;5009436;28;20256;-51
2022/09/07 01:06:15;;;;;;;5.37;3.70;;;16.70;99.90;;;;;;5013875;28;20225;-51
2022/09/07 01:08:47;;;;;;;4.70;3.70;;;16.70;99.90;;;;;;5014058;28;20316;-51
2022/09/07 01:11:16;;;;;;;5.23;3.77;;;16.70;99.90;;;;;;5015906;28;20233;-51
2022/09/07 01:13:46;;;;;;;3.57;3.20;;;16.70;99.90;;;;;;5018107;28;20249;-51
2022/09/07 01:16:26;;;;;;;5.00;3.93;;;16.70;99.90;;;;;;5018265;28;20279;-52
2022/09/07 01:19:08;;;;;;;5.20;3.77;;;16.60;99.90;;;;;;5018523;28;20759;-52
2022/09/07 01:21:52;;;;;;;4.63;3.73;;;16.70;99.90;;;;;;5017989;28;20237;-52
2022/09/07 01:24:40;;;;;;;3.97;3.60;;;16.60;99.90;;;;;;5011336;28;20323;-52
2022/09/07 01:27:40;;;;;;;5.10;4.10;;;16.60;99.90;;;;;;5017786;28;20648;-52
2022/09/07 01:30:12;;;;;;;5.67;3.87;;;16.60;99.90;;;;;;5017700;28;20224;-50
2022/09/07 01:33:01;;;;;;;4.40;4.00;;;16.70;99.90;;;;;;5016982;28;20257;-52
2022/09/07 01:35:39;;;;;;;3.80;3.40;;;16.70;99.90;;;;;;5016465;28;20312;-51
2022/09/07 01:38:15;;;;;;;5.13;3.70;;;16.70;99.90;;;;;;5018028;28;20327;-52
2022/09/07 01:40:50;;;;;;;6.33;4.20;;;16.60;99.90;;;;;;5017427;28;20652;-49
2022/09/07 01:43:26;;;;;;;4.53;3.63;;;16.70;99.90;;;;;;5016975;28;20320;-50
2022/09/07 01:45:58;;;;;;;4.30;3.90;;;16.70;99.90;;;;;;5017514;28;20263;-51
2022/09/07 01:48:27;;;;;;;5.27;3.53;;;16.70;99.90;;;;;;5017368;28;20637;-52
2022/09/07 01:51:00;;;;;;;5.43;4.07;;;16.60;99.90;;;;;;5017377;28;20302;-51
2022/09/07 01:53:34;;;;;;;5.40;3.67;;;16.60;99.90;;;;;;5017403;28;20225;-51
2022/09/07 01:56:06;;;;;;;3.83;3.50;;;16.60;99.90;;;;;;5017718;28;20224;-52
2022/09/07 01:58:39;;;;;;;4.03;3.50;;;16.60;99.90;;;;;;5017635;28;20725;-52
2022/09/07 02:01:14;;;;;;;4.10;3.70;;;16.60;99.90;;;;;;5016869;28;20230;-49
2022/09/07 02:03:46;;;;;;;3.90;3.60;;;16.70;99.90;;;;;;5016724;28;20235;-49
2022/09/07 02:06:20;;;;;;;4.97;3.40;;;16.70;99.90;;;;;;4997951;28;20230;-50
2022/09/07 02:08:55;;;;;;;5.33;3.30;;;16.70;99.90;;;;;;4997523;28;20230;-51
2022/09/07 02:11:28;;;;;;;4.57;3.97;;;16.70;99.90;;;;;;4997435;28;20622;-52
2022/09/07 02:14:01;;;;;;;8.20;3.70;;;16.70;99.90;;;;;;5008077;28;20225;-49
2022/09/07 02:16:33;;;;;;;3.73;3.43;;;16.70;99.90;;;;;;5016765;28;20257;-51
2022/09/07 02:19:07;;;;;;;7.23;3.80;;;16.70;99.90;;;;;;5017321;28;20217;-50
2022/09/07 02:21:39;;;;;;;8.90;3.67;;;16.60;99.90;;;;;;5012431;28;20236;-49
2022/09/07 02:24:12;;;;;;;4.20;3.80;;;16.60;99.90;;;;;;5016515;28;20237;-51
2022/09/07 02:26:44;;;;;;;4.90;4.07;;;16.70;99.90;;;;;;5016492;28;20280;-51
2022/09/07 02:29:12;;;;;;;6.23;4.03;;;16.60;99.90;;;;;;5016492;28;20229;-51
2022/09/07 02:31:42;;;;;;;4.87;3.70;;;16.60;99.90;;;;;;5016052;28;20229;-52
2022/09/07 02:34:10;;;;;;;3.93;3.53;;;16.60;99.90;;;;;;5008806;28;20681;-51
2022/09/07 02:36:44;;;;;;;4.80;3.90;;;16.60;99.90;;;;;;5016528;28;20340;-53
2022/09/07 02:39:12;;;;;;;12.57;3.33;;;16.60;99.90;;;;;;5017103;28;20652;-50
2022/09/07 02:41:43;;;;;;;5.27;3.43;;;16.60;99.90;;;;;;5016496;28;20325;-49
2022/09/07 02:44:15;;;;;;;5.43;3.70;;;16.60;99.90;;;;;;5015629;28;20727;-52
2022/09/07 02:46:58;;;;;;;3.90;3.50;;;16.60;99.90;;;;;;5016137;28;20240;-51
2022/09/07 02:49:45;;;;;;;4.23;3.77;;;16.50;99.90;;;;;;5015845;28;20257;-51
2022/09/07 02:52:22;;;;;;;4.57;3.47;;;16.50;99.90;;;;;;5015792;28;20304;-53
2022/09/07 02:55:02;;;;;;;6.40;3.50;;;16.50;99.90;;;;;;4999343;28;20308;-51
2022/09/07 02:57:43;;;;;;;3.80;3.50;;;16.50;99.90;;;;;;4996684;28;20304;-49
2022/09/07 03:00:15;;;;;;;4.83;3.83;;;16.50;99.90;;;;;;4996418;28;20257;-51
2022/09/07 03:02:51;;;;;;;5.10;3.73;;;16.50;99.90;;;;;;5009514;28;20316;-48
2022/09/07 03:05:25;;;;;;;5.33;3.70;;;16.40;99.90;;;;;;5009400;28;20304;-52
2022/09/07 03:07:59;;;;;;;4.10;3.70;;;16.40;99.90;;;;;;5016006;28;20325;-51
2022/09/07 03:10:28;;;;;;;4.60;4.10;;;16.50;99.90;;;;;;5015920;28;20647;-52
2022/09/07 03:12:57;;;;;;;4.80;3.90;;;16.50;99.90;;;;;;5015697;28;20230;-51
2022/09/07 03:15:27;;;;;;;7.07;3.63;;;16.40;99.90;;;;;;5015925;28;20252;-51
2022/09/07 03:17:56;;;;;;;4.60;4.10;;;16.50;99.90;;;;;;5000179;28;20214;-50
2022/09/07 03:20:25;;;;;;;4.20;3.70;;;16.50;99.90;;;;;;5031027;28;20253;-51
2022/09/07 03:22:53;;;;;;;5.63;4.33;;;16.40;99.90;;;;;;5015399;28;20225;-51
2022/09/07 03:25:22;;;;;;;4.57;3.90;;;16.40;99.90;;;;;;5015897;28;20251;-49
2022/09/07 03:27:50;;;;;;;4.83;3.73;;;16.40;99.90;;;;;;5015515;28;20328;-50
2022/09/07 03:30:19;;;;;;;4.37;3.70;;;16.30;99.90;;;;;;5015542;28;20291;-52
2022/09/07 03:32:47;;;;;;;4.63;3.70;;;16.30;99.90;;;;;;5019575;28;20231;-51
2022/09/07 03:35:17;;;;;;;4.53;3.80;;;16.30;99.90;;;;;;5007205;28;20308;-51
2022/09/07 03:37:45;;;;;;;3.97;3.57;;;16.30;99.90;;;;;;5015351;28;20328;-51
2022/09/07 03:40:15;;;;;;;4.17;3.80;;;16.40;99.90;;;;;;5015449;28;20237;-51
2022/09/07 03:42:47;;;;;;;4.73;3.90;;;16.40;99.90;;;;;;5015203;28;20340;-51
2022/09/07 03:45:15;;;;;;;4.83;3.50;;;16.30;99.90;;;;;;5007923;28;20232;-51
2022/09/07 03:47:43;;;;;;;5.53;4.10;;;16.40;99.90;;;;;;5015408;28;20323;-51
2022/09/07 03:50:12;;;;;;;4.57;3.67;;;16.40;99.90;;;;;;5015248;28;20761;-52
2022/09/07 03:52:41;;;;;;;4.97;3.77;;;16.30;99.90;;;;;;5014971;28;20240;-50
2022/09/07 03:55:09;;;;;;;4.70;4.17;;;16.40;99.90;;;;;;5008963;28;20643;-52
2022/09/07 03:57:39;;;;;;;4.03;3.67;;;16.40;99.90;;;;;;5014828;28;20316;-51
2022/09/07 04:00:08;;;;;;;6.33;4.23;;;16.30;99.90;;;;;;5014678;28;20320;-50
2022/09/07 04:02:42;;;;;;;5.80;4.17;;;16.30;99.90;;;;;;5014544;28;20597;-52
2022/09/07 04:05:10;;;;;;;4.13;3.73;;;16.30;99.90;;;;;;5015193;28;20237;-49
2022/09/07 04:07:38;;;;;;;4.90;4.10;;;16.30;99.90;;;;;;5014577;28;20292;-52
2022/09/07 04:10:09;;;;;;;5.70;4.30;;;16.30;99.90;;;;;;5015436;28;20320;-50
2022/09/07 04:12:37;;;;;;;5.73;4.00;;;16.30;99.90;;;;;;5014969;28;20260;-50
2022/09/07 04:15:06;;;;;;;5.00;4.13;;;16.20;99.90;;;;;;5014788;28;20225;-50
2022/09/07 04:17:34;;;;;;;4.77;3.93;;;16.30;99.90;;;;;;5014671;28;20748;-52
2022/09/07 04:20:03;;;;;;;6.37;4.80;;;16.30;99.90;;;;;;5015448;28;20719;-51
2022/09/07 04:22:31;;;;;;;6.40;4.23;;;16.30;99.90;;;;;;5014524;28;20320;-51
2022/09/07 04:24:59;;;;;;;6.97;4.90;;;16.30;99.90;;;;;;5008493;28;20244;-52
2022/09/07 04:27:29;;;;;;;4.97;4.40;;;16.40;99.90;;;;;;5008835;28;20707;-52
2022/09/07 04:29:57;;;;;;;4.80;4.10;;;16.40;99.90;;;;;;5014211;28;20316;-51
2022/09/07 04:32:25;;;;;;;6.90;4.10;;;16.50;99.90;;;;;;5013868;28;20324;-52
2022/09/07 04:34:53;;;;;;;7.47;4.80;;;16.50;99.90;;;;;;5014514;28;20729;-52
2022/09/07 04:37:21;;;;;;;4.97;4.47;;;16.50;99.90;;;;;;5014902;28;20288;-50
2022/09/07 04:39:50;;;;;;;5.00;4.50;;;16.40;99.90;;;;;;5014283;28;20227;-51
2022/09/07 04:42:19;;;;;;;4.80;4.30;;;16.50;99.90;;;;;;5021271;28;20601;-51
2022/09/07 04:44:50;;;;;;;5.03;4.53;;;16.50;99.90;;;;;;5016018;28;20217;-53
2022/09/07 04:47:18;;;;;;;6.03;4.97;;;16.50;99.90;;;;;;5012332;28;20275;-52
2022/09/07 04:49:50;;;;;;;7.90;5.10;;;16.50;99.90;;;;;;5014929;28;20267;-51
2022/09/07 04:52:19;;;;;;;10.40;4.73;;;16.50;99.90;;;;;;5014418;28;20744;-50
2022/09/07 04:54:49;;;;;;;7.00;5.00;;;16.50;99.90;;;;;;5016100;28;20228;-51
2022/09/07 04:57:20;;;;;;;9.40;5.20;;;16.50;99.90;;;;;;5007480;28;20239;-51
2022/09/07 04:59:49;;;;;;;6.10;5.00;;;16.50;99.90;;;;;;5013844;28;20232;-51
2022/09/07 05:02:18;;;;;;;7.87;5.00;;;16.60;99.90;;;;;;5013824;28;20732;-50
2022/09/07 05:04:46;;;;;;;8.70;4.83;;;16.60;99.90;;;;;;5013230;28;20225;-49
2022/09/07 05:07:14;;;;;;;9.57;5.10;;;16.70;99.90;;;;;;5013300;28;20233;-51
2022/09/07 05:09:42;;;;;;;7.20;4.93;;;16.70;99.90;;;;;;5017536;28;20224;-51
2022/09/07 05:12:10;;;;;;;5.17;4.47;;;16.60;99.90;;;;;;5014178;28;20225;-52
2022/09/07 05:14:38;;;;;;;5.93;4.60;;;16.60;99.90;;;;;;5012069;28;20633;-51
2022/09/07 05:17:08;;;;;;;7.57;4.90;;;16.60;99.90;;;;;;5013297;28;20228;-52
2022/09/07 05:19:36;;;;;;;6.60;5.33;;;16.70;99.90;;;;;;5016180;28;20276;-50
2022/09/07 05:22:04;;;;;;;8.43;5.20;;;16.70;99.90;;;;;;5015106;28;20604;-52
2022/09/07 05:24:35;;;;;;;8.57;5.00;;;16.70;99.90;;;;;;5012779;28;20221;-51
2022/09/07 05:27:03;;;;;;;5.33;4.80;;;16.70;99.90;;;;;;5010064;28;20879;-51
2022/09/07 05:29:31;;;;;;;7.70;5.07;;;16.80;99.90;;;;;;5005113;28;20316;-51
2022/09/07 05:32:21;;;;;;;5.63;5.03;;;16.70;99.90;;;;;;5007064;28;20240;-50
2022/09/07 05:34:49;;;;;;;5.83;5.30;;;16.70;99.90;;;;;;5016739;28;20246;-50
2022/09/07 05:37:20;;;;;;;8.13;6.90;;;16.70;99.90;;;;;;5012065;28;20226;-52
2022/09/07 05:39:48;;;;;;;6.47;5.73;;;16.70;99.90;;;;;;5012841;28;20304;-52
2022/09/07 05:42:16;;;;;;;7.03;5.93;;;16.70;99.90;;;;;;5012563;28;20705;-49
2022/09/07 05:44:44;;;;;;;9.07;6.57;;;16.70;99.90;;;;;;5012794;28;20397;-51
2022/09/07 05:47:13;;;;;;;6.90;6.20;;;16.70;99.90;;;;;;5005658;28;20240;-50
2022/09/07 05:49:43;;;;;;;7.17;5.33;;;16.60;99.90;;;;;;5018549;28;20316;-52
2022/09/07 05:52:11;;;;;;;5.40;4.90;;;16.60;99.90;;;;;;5012515;28;20245;-52
2022/09/07 05:54:39;;;;;;;6.20;5.60;;;16.60;99.90;;;;;;5009966;28;20240;-51
2022/09/07 05:57:10;;;;;;;6.10;5.50;;;16.50;99.90;;;;;;5012577;28;20221;-51
2022/09/07 05:59:38;;;;;;;6.40;5.10;;;16.50;99.90;;;;;;5014673;28;20225;-50
2022/09/07 06:02:06;;;;;;;9.43;5.83;;;16.50;99.90;;;;;;5015278;28;20233;-52
2022/09/07 06:04:34;;;;;;;7.17;5.53;;;16.40;99.90;;;;;;5013419;28;20716;-52
2022/09/07 06:07:04;;;;;;;5.47;5.03;;;16.40;99.90;;;;;;5015150;28;20654;-52
2022/09/07 06:09:48;;;;;;;6.27;5.17;;;16.30;99.90;;;;;;5013709;28;20231;-50
2022/09/07 06:12:37;;;;;;;5.80;5.10;;;16.40;99.90;;;;;;5012171;28;20706;-51
2022/09/07 06:15:06;;;;;;;6.10;5.27;;;16.40;99.90;;;;;;5016250;28;20661;-52
2022/09/07 06:17:34;;;;;;;8.03;6.20;;;16.40;99.90;;;;;;5011301;28;20308;-53
2022/09/07 06:20:03;;;;;;;5.93;5.33;;;16.40;99.90;;;;;;5015630;28;20304;-53
2022/09/07 06:22:35;;;;;;;6.87;6.07;;;16.40;99.90;;;;;;5014529;28;20277;-52
2022/09/07 06:25:04;;;;;;;7.67;6.13;;;16.40;99.90;;;;;;5009025;28;20312;-52
2022/09/07 06:27:32;;;;;;;6.03;5.53;;;16.40;99.90;;;;;;5013679;28;20636;-52
2022/09/07 06:30:00;;;;;;;7.60;6.07;;;16.40;99.90;;;;;;5021850;28;20233;-53
2022/09/07 06:32:28;;;;;;;6.70;5.97;;;16.40;99.90;;;;;;5018560;28;20245;-51
2022/09/07 06:35:13;;;;;;;7.37;5.97;;;16.40;99.90;;;;;;5009214;28;20237;-52
2022/09/07 06:37:43;;;;;;;7.50;5.73;;;16.40;99.90;;;;;;5018381;28;20645;-52
2022/09/07 06:40:12;;;;;;;6.90;6.20;;;16.40;99.90;;;;;;5013910;28;20257;-53
2022/09/07 06:42:40;;;;;;;7.77;6.43;;;16.40;99.90;;;;;;5018632;28;20248;-53
2022/09/07 06:45:10;;;;;;;7.00;6.30;;;16.40;99.90;;;;;;5015745;28;20225;-53
2022/09/07 06:47:39;;;;;;;6.20;5.60;;;16.40;99.90;;;;;;5014583;28;20763;-51
2022/09/07 06:50:08;;;;;;;5.90;5.37;;;16.30;99.90;;;;;;5016048;28;20252;-53
2022/09/07 06:52:37;;;;;;;7.40;6.70;;;16.40;99.90;;;;;;5022000;28;20312;-53
2022/09/07 06:55:27;;;;;;;7.33;6.73;;;16.40;99.90;;;;;;5014459;28;20226;-52
2022/09/07 06:57:55;;;;;;;6.70;6.10;;;16.40;99.90;;;;;;5015772;28;20324;-53
2022/09/07 07:00:23;;;;;;;7.10;6.30;;;16.40;99.90;;;;;;5014848;28;20252;-52
2022/09/07 07:02:51;;;;;;;7.33;6.63;;;16.40;99.90;;;;;;5015762;28;20275;-52
2022/09/07 07:05:20;;;;;;;9.67;6.47;;;16.40;99.90;;;;;;5018084;28;20226;-52
2022/09/07 07:07:48;;;;;;;7.77;6.97;;;16.40;99.90;;;;;;5016551;28;20233;-52
2022/09/07 07:10:16;;;;;;;7.70;6.47;;;16.40;99.90;;;;;;5016596;28;20225;-51
2022/09/07 07:12:55;;;;;;;7.93;6.70;;;16.40;99.90;;;;;;5008058;28;20249;-53
2022/09/07 07:15:27;;;;;;;11.47;7.27;;;16.40;99.90;;;;;;5019611;28;20240;-53
2022/09/07 07:17:55;;;;;;;8.37;6.97;;;16.40;99.90;;;;;;5022687;28;20573;-53
2022/09/07 07:20:41;;;;;;;9.00;8.03;;;16.40;99.90;;;;;;5018946;28;20764;-52
2022/09/07 07:23:11;;;;;;;10.73;8.13;;;16.40;99.90;;;;;;5013721;28;20226;-53
2022/09/07 07:25:39;;;;;;;8.13;7.43;;;16.30;99.90;;;;;;5018178;28;20233;-52
2022/09/07 07:28:08;;;;;;;10.47;8.07;;;16.30;99.90;;;;;;5016342;28;20320;-52
2022/09/07 07:30:58;;;;;;;10.23;7.80;;;16.30;99.90;;;;;;5012504;28;20247;-52
2022/09/07 07:33:29;;;;;;;9.23;8.33;;;16.30;99.90;;;;;;5016292;28;20312;-53
2022/09/07 07:36:08;;;;;;;8.60;7.83;;;16.30;99.90;;;;;;5006373;28;20230;-52
2022/09/07 07:38:36;;;;;;;8.90;7.70;;;16.20;99.90;;;;;;5011421;28;20232;-53
2022/09/07 07:41:28;;;;;;;9.30;7.30;;;16.20;99.90;;;;;;5013325;28;20656;-50
2022/09/07 07:44:18;;;;;;;9.47;8.50;;;16.10;99.90;;;;;;5010731;28;20307;-52
2022/09/07 07:46:47;;;;;;;8.17;7.47;;;16.00;99.90;;;;;;5011638;28;20237;-51
2022/09/07 07:49:16;;;;;;;8.53;7.40;;;16.00;99.90;;;;;;5015433;28;20232;-52
2022/09/07 07:51:44;;;;;;;8.27;7.10;;;16.10;99.90;;;;;;5014622;28;20225;-50
2022/09/07 07:54:35;;;;;;;8.73;7.73;;;16.20;99.90;;;;;;5011178;28;20225;-50
2022/09/07 07:57:04;;;;;;;8.50;7.63;;;16.30;99.90;;;;;;5014939;28;20324;-52
2022/09/07 07:59:33;;;;;;;7.70;6.90;;;16.30;99.90;;;;;;5014822;28;20233;-53
2022/09/07 08:02:03;;;;;;;7.37;6.50;;;16.30;99.90;;;;;;5014401;28;20241;-52
2022/09/07 08:04:32;;;;;;;8.00;7.20;;;16.40;99.90;;;;;;5014629;28;20229;-51
2022/09/07 08:07:00;;;;;;;7.90;7.20;;;16.40;99.90;;;;;;5011903;28;20288;-50
2022/09/07 08:09:36;;;;;;;8.63;7.83;;;16.40;99.90;;;;;;5014741;28;20681;-50
2022/09/07 08:12:05;;;;;;;13.30;7.83;;;16.20;99.90;;;;;;5014648;28;20708;-52
2022/09/07 08:14:39;;;;;;;7.60;6.90;;;16.20;99.90;;;;;;5014455;28;20242;-53
2022/09/07 08:17:08;;;;;;;7.80;7.10;;;16.30;99.90;;;;;;5014189;28;20220;-52
2022/09/07 08:19:36;;;;;;;7.20;6.50;;;16.30;99.90;;;;;;5014477;28;20233;-51
2022/09/07 08:22:04;;;;;;;8.63;7.53;;;16.30;99.90;;;;;;5013917;28;20237;-51
2022/09/07 08:24:33;;;;;;;7.70;6.90;;;16.20;99.90;;;;;;5014229;28;20232;-52
2022/09/07 08:27:01;;;;;;;10.10;8.00;;;16.20;99.90;;;;;;5013584;28;20744;-52
2022/09/07 08:29:30;;;;;;;9.73;7.30;;;16.10;99.90;;;;;;5015799;28;20605;-49
2022/09/07 08:32:05;;;;;;;8.57;7.80;;;16.20;99.90;;;;;;5014781;28;20760;-51
2022/09/07 08:34:35;;;;;;;8.40;7.57;;;16.20;99.90;;;;;;5017159;28;20233;-52
2022/09/07 08:37:04;;;;;;;9.90;7.43;;;16.20;99.90;;;;;;5012228;28;20216;-49
2022/09/07 08:39:32;;;;;;;8.30;7.60;;;16.30;99.90;;;;;;5011685;28;20240;-50
2022/09/07 08:42:12;;;;;;;8.67;7.80;;;16.20;99.90;;;;;;5011070;28;20221;-50
2022/09/07 08:44:46;;;;;;;8.33;7.23;;;16.10;99.90;;;;;;5009962;28;20236;-52
2022/09/07 08:47:24;;;;;;;8.77;7.80;;;16.20;99.90;;;;;;5013542;28;20236;-50
2022/09/07 08:49:59;;;;;;;8.80;7.90;;;16.20;99.90;;;;;;5014163;28;20229;-49
2022/09/07 08:52:37;;;;;;;9.03;8.23;;;16.20;99.90;;;;;;5013655;28;20248;-51
2022/09/07 08:55:12;;;;;;;8.53;7.63;;;16.20;99.90;;;;;;5009680;28;20221;-50
2022/09/07 08:57:46;;;;;;;9.57;8.50;;;16.10;99.90;;;;;;5011350;28;20221;-50
2022/09/07 09:00:16;;;;;;;10.27;8.37;;;16.30;99.90;;;;;;5008156;28;20217;-50
2022/09/07 09:02:45;;;;;;;9.77;8.80;;;16.30;99.90;;;;;;5013296;28;20233;-51
2022/09/07 09:05:43;;;;;;;10.90;8.70;;;16.40;99.90;;;;;;5008723;28;20287;-52
2022/09/07 09:08:27;;;;;;;9.33;8.37;;;16.40;99.90;;;;;;5007854;28;20224;-51
2022/09/07 09:11:04;;;;;;;9.67;8.77;;;16.50;99.90;;;;;;5010078;28;20252;-52
2022/09/07 09:13:44;;;;;;;9.47;8.57;;;16.50;99.90;;;;;;5008770;28;20228;-51
2022/09/07 09:16:19;;;;;;;10.23;9.07;;;16.70;99.90;;;;;;5016296;28;20217;-52
2022/09/07 09:19:05;;;;;;;11.20;8.23;;;16.80;99.90;;;;;;5012516;28;20712;-50
2022/09/07 09:21:34;;;;;;;9.17;8.20;;;17.00;99.90;;;;;;5014070;28;20291;-49
2022/09/07 09:24:13;;;;;;;12.23;8.47;;;17.10;99.90;;;;;;5005195;28;20618;-51
2022/09/07 09:26:44;;;;;;;8.50;7.60;;;17.20;99.90;;;;;;5015115;28;20243;-49
2022/09/07 09:29:13;;;;;;;9.57;8.57;;;17.20;99.90;;;;;;5012689;28;20252;-51
2022/09/07 09:31:41;;;;;;;10.57;8.13;;;17.40;99.90;;;;;;5011210;28;20239;-51
2022/09/07 09:34:14;;;;;;;9.03;8.13;;;17.70;99.90;;;;;;5017094;28;20221;-49
2022/09/07 09:36:47;;;;;;;7.87;7.17;;;18.10;99.90;;;;;;5018029;28;20233;-51
2022/09/07 09:39:27;;;;;;;7.57;6.87;;;18.50;99.90;;;;;;5017715;28;20233;-53
2022/09/07 09:41:58;;;;;;;8.17;7.33;;;18.90;99.90;;;;;;5017839;28;20694;-49
2022/09/07 09:44:33;;;;;;;7.07;6.33;;;19.20;99.90;;;;;;5016984;28;20586;-52
2022/09/07 09:47:02;;;;;;;8.00;7.20;;;19.60;99.90;;;;;;5010882;28;20230;-52
2022/09/07 09:49:52;;;;;;;7.30;6.60;;;19.80;99.90;;;;;;5016283;28;20291;-53
2022/09/07 09:52:22;;;;;;;7.67;6.63;;;19.90;99.90;;;;;;5011338;28;20227;-52
2022/09/07 09:55:02;;;;;;;7.10;6.40;;;20.20;99.90;;;;;;5008645;28;20700;-52
2022/09/07 09:57:52;;;;;;;9.57;6.33;;;20.60;99.90;;;;;;5016623;28;20223;-51
2022/09/07 10:00:55;;;;;;;8.37;6.27;;;20.70;99.90;;;;;;5015789;28;20236;-51
2022/09/07 10:03:43;;;;;;;6.97;6.33;;;20.70;99.90;;;;;;5010181;28;20251;-52
2022/09/07 10:06:32;;;;;;;8.20;6.77;;;20.80;99.90;;;;;;5012632;28;20313;-51
2022/09/07 10:09:02;;;;;;;6.40;5.80;;;21.30;99.90;;;;;;5009325;28;20236;-53
2022/09/07 10:11:42;;;;;;;6.67;5.80;;;21.80;99.90;;;;;;5012514;28;20247;-52
2022/09/07 10:14:32;;;;;;;7.50;6.30;;;22.00;99.90;;;;;;5017327;28;20232;-50
2022/09/07 10:17:10;;;;;;;7.27;5.67;;;22.10;99.90;;;;;;5016763;28;20229;-51
2022/09/07 10:19:40;;;;;;;7.57;6.93;;;22.00;99.90;;;;;;5012821;28;20225;-49
2022/09/07 10:22:24;;;;;;;7.97;5.13;;;21.90;99.90;;;;;;5011646;28;20244;-52
2022/09/07 10:24:52;;;;;;;6.70;6.00;;;22.10;99.90;;;;;;5020178;28;20216;-53
2022/09/07 10:27:33;;;;;;;8.00;6.00;;;22.30;99.90;;;;;;5019015;28;20268;-49
2022/09/07 10:30:01;;;;;;;7.50;6.50;;;22.40;99.90;;;;;;5020325;28;20232;-53
2022/09/07 10:32:45;;;;;;;9.03;7.47;;;22.50;99.90;;;;;;5021397;28;20241;-52
2022/09/07 10:35:20;;;;;;;8.47;7.00;;;22.20;99.90;;;;;;5015810;28;20221;-51
2022/09/07 10:37:59;;;;;;;5.70;5.10;;;22.20;99.90;;;;;;5010672;28;20225;-51
2022/09/07 10:40:33;;;;;;;7.83;6.67;;;22.40;99.90;;;;;;5016222;28;20228;-52
2022/09/07 10:43:22;;;;;;;7.57;6.50;;;22.70;99.90;;;;;;5015146;28;20284;-54
2022/09/07 10:46:08;;;;;;;8.77;6.13;;;22.90;99.90;;;;;;5015148;28;20235;-52
2022/09/07 10:48:48;;;;;;;7.50;5.93;;;22.90;99.90;;;;;;5008740;28;20222;-52
2022/09/07 10:51:22;;;;;;;7.20;6.47;;;22.90;99.90;;;;;;5014424;28;20221;-52
2022/09/07 10:54:01;;;;;;;6.83;6.13;;;22.80;99.90;;;;;;5015367;28;20225;-52
2022/09/07 10:57:00;;;;;;;7.07;6.13;;;22.90;99.90;;;;;;5012303;28;20228;-50
2022/09/07 10:59:39;;;;;;;7.40;6.47;;;22.90;99.90;;;;;;5018810;28;20255;-51
2022/09/07 11:02:35;;;;;;;7.37;6.67;;;23.00;99.90;;;;;;5015292;28;20291;-51
2022/09/07 11:05:17;;;;;;;7.87;6.10;;;23.00;99.90;;;;;;5018327;28;20290;-51
2022/09/07 11:07:59;;;;;;;7.13;6.43;;;23.20;99.90;;;;;;5017455;28;20228;-52
2022/09/07 11:10:38;;;;;;;7.93;7.20;;;23.40;99.90;;;;;;5016348;28;20221;-50
2022/09/07 11:13:10;;;;;;;6.40;5.80;;;23.40;99.90;;;;;;5020507;28;20689;-51
2022/09/07 11:15:43;;;;;;;7.53;6.50;;;23.40;99.90;;;;;;5019807;28;20233;-52
2022/09/07 11:18:17;;;;;;;9.60;6.27;;;23.20;99.90;;;;;;5013574;28;20228;-53
2022/09/07 11:20:53;;;;;;;6.60;5.87;;;23.20;99.90;;;;;;5015348;28;21301;-52
2022/09/07 11:23:26;;;;;;;6.17;5.53;;;23.30;99.90;;;;;;5015614;28;20221;-53
2022/09/07 11:26:03;;;;;;;5.87;5.37;;;23.60;99.90;;;;;;5013596;28;20280;-52
2022/09/07 11:28:44;;;;;;;8.13;7.33;;;23.80;99.90;;;;;;5009059;28;20228;-54
2022/09/07 11:31:20;;;;;;;7.70;6.90;;;23.70;99.90;;;;;;5015332;28;20233;-53
2022/09/07 11:33:55;;;;;;;7.03;5.70;;;23.90;99.90;;;;;;5012706;28;20231;-52
2022/09/07 11:36:50;;;;;;;5.73;5.13;;;24.00;99.90;;;;;;5015106;28;20279;-53
2022/09/07 11:39:25;;;;;;;7.10;6.13;;;24.20;99.90;;;;;;5013088;28;20225;-53
2022/09/07 11:42:01;;;;;;;6.00;4.93;;;24.20;99.90;;;;;;5013441;28;20241;-53
2022/09/07 11:44:53;;;;;;;6.07;5.37;;;24.40;99.90;;;;;;5007324;28;20222;-52
2022/09/07 11:47:28;;;;;;;5.73;4.30;;;24.60;99.90;;;;;;5015084;28;20744;-52
2022/09/07 11:49:56;;;;;;;5.43;4.90;;;24.90;99.90;;;;;;5015071;28;20690;-53
2022/09/07 11:52:35;;;;;;;6.77;4.97;;;25.00;99.90;;;;;;5018613;28;20300;-53
2022/09/07 11:55:07;;;;;;;5.60;4.83;;;25.00;99.90;;;;;;5019354;28;20958;-53
2022/09/07 11:58:03;;;;;;;4.83;4.20;;;24.80;99.90;;;;;;5022544;28;20226;-53
2022/09/07 12:00:44;;;;;;;6.53;5.30;;;24.70;99.90;;;;;;5009436;28;20226;-53
2022/09/07 12:03:46;;;;;;;6.27;4.47;;;24.70;99.90;;;;;;5010723;28;20234;-54
2022/09/07 12:06:46;;;;;;;5.10;4.57;;;24.70;99.90;;;;;;5000084;28;20221;-54
2022/09/07 12:09:30;;;;;;;5.43;4.93;;;24.90;99.90;;;;;;5011166;28;20265;-54
2022/09/07 12:12:19;;;;;;;6.23;4.40;;;24.60;99.90;;;;;;5014066;28;20232;-55
2022/09/07 12:15:01;;;;;;;5.63;4.30;;;24.80;99.90;;;;;;5014876;28;20227;-54
2022/09/07 12:17:46;;;;;;;4.33;3.93;;;24.90;99.90;;;;;;5017505;28;20257;-54
2022/09/07 12:20:16;;;;;;;4.40;3.80;;;25.10;99.90;;;;;;5011161;28;20269;-54
2022/09/07 12:22:59;;;;;;;5.03;4.27;;;25.10;99.90;;;;;;5010858;28;20237;-54
2022/09/07 12:25:33;;;;;;;4.00;3.60;;;25.30;99.90;;;;;;5012740;28;20245;-54
2022/09/07 12:28:01;;;;;;;4.53;3.40;;;25.40;99.90;;;;;;5006491;28;20229;-55
2022/09/07 12:31:00;;;;;;;4.47;4.10;;;25.50;99.90;;;;;;5014972;28;20269;-55
2022/09/07 12:33:34;;;;;;;3.83;3.53;;;25.50;99.90;;;;;;5013086;28;20318;-55
2022/09/07 12:36:18;;;;;;;4.17;3.87;;;25.50;99.90;;;;;;5007172;28;20243;-55
2022/09/07 12:39:08;;;;;;;6.30;4.37;;;25.40;99.90;;;;;;5011336;28;20231;-53
2022/09/07 12:41:45;;;;;;;4.10;3.60;;;25.60;99.90;;;;;;5013608;28;20228;-54
2022/09/07 12:44:17;;;;;;;4.83;4.20;;;25.60;99.90;;;;;;5015518;28;20323;-54
2022/09/07 12:46:50;;;;;;;6.00;4.13;;;25.60;99.90;;;;;;5015064;28;20237;-54
2022/09/07 12:49:45;;;;;;;4.43;4.10;;;25.60;99.90;;;;;;5015179;28;20341;-54
2022/09/07 12:52:34;;;;;;;4.67;4.20;;;25.50;99.90;;;;;;5013485;28;20222;-54
2022/09/07 12:55:11;;;;;;;4.77;4.27;;;25.70;99.90;;;;;;5017534;28;20241;-52
2022/09/07 12:58:09;;;;;;;3.87;3.57;;;25.80;99.90;;;;;;5015254;28;20231;-55
2022/09/07 13:00:54;;;;;;;4.30;3.90;;;25.80;99.90;;;;;;5009019;28;20664;-55
2022/09/07 13:03:45;;;;;;;4.67;4.23;;;25.90;99.90;;;;;;5019584;28;20260;-55
2022/09/07 13:06:32;;;;;;;4.77;4.37;;;25.80;99.90;;;;;;5006672;28;20302;-54
2022/09/07 13:09:31;;;;;;;4.93;4.07;;;25.70;99.90;;;;;;5016792;28;20312;-54
2022/09/07 13:12:00;;;;;;;4.50;3.47;;;25.70;99.90;;;;;;5021272;28;20289;-54
2022/09/07 13:14:29;;;;;;;6.47;3.83;;;25.80;99.90;;;;;;5018749;28;20231;-54
2022/09/07 13:17:41;;;;;;;3.80;3.20;;;25.80;99.90;;;;;;5018986;28;20345;-54
2022/09/07 13:20:28;;;;;;;4.63;3.57;;;25.60;99.90;;;;;;5011049;28;20216;-53
2022/09/07 13:23:22;;;;;;;3.93;3.53;;;25.60;99.90;;;;;;5019148;28;20232;-54